Time;durP1;ratioP1;P1;durP2;ratioP2;P2;SDS_P1;SDS_P2;PMS_P1;PMS_P2;Temp;Humidity;BMP_temperature;BMP_pressure;BME280_temperature;BME280_humidity;BME280_pressure;Samples;Min_cycle;Max_cycle;Signal;HPM_P1;HPM_P2
2021/09/07 00:01:12;;;;;;;11.43;7.10;;;11.00;99.90;;;;;;6283804;28;20327;-77
2021/09/07 00:04:14;;;;;;;12.27;6.50;;;11.00;99.90;;;;;;6260842;28;20656;-78
2021/09/07 00:07:17;;;;;;;7.37;6.13;;;11.00;99.90;;;;;;6261315;28;20203;-78
2021/09/07 00:10:19;;;;;;;9.20;6.00;;;11.00;99.90;;;;;;6275659;28;20259;-78
2021/09/07 00:13:22;;;;;;;8.73;7.10;;;11.00;99.90;;;;;;6275409;28;20183;-77
2021/09/07 00:16:26;;;;;;;8.03;6.00;;;11.00;99.90;;;;;;6274202;28;20204;-78
2021/09/07 00:19:29;;;;;;;7.67;6.33;;;10.90;99.90;;;;;;6274101;28;20183;-78
2021/09/07 00:22:31;;;;;;;9.63;6.43;;;10.90;99.90;;;;;;6274080;28;20230;-77
2021/09/07 00:25:33;;;;;;;8.67;6.40;;;11.00;99.90;;;;;;6257307;28;20221;-77
2021/09/07 00:28:36;;;;;;;8.80;6.70;;;11.00;99.90;;;;;;6273551;28;20216;-77
2021/09/07 00:31:38;;;;;;;8.53;6.43;;;10.90;99.90;;;;;;6275141;28;20214;-78
2021/09/07 00:34:40;;;;;;;8.10;6.40;;;11.00;99.90;;;;;;6263622;28;20663;-78
2021/09/07 00:37:43;;;;;;;7.47;6.53;;;11.00;99.90;;;;;;6273716;28;20216;-78
2021/09/07 00:40:45;;;;;;;8.80;6.27;;;10.90;99.90;;;;;;6274678;28;20269;-78
2021/09/07 00:43:47;;;;;;;10.40;6.63;;;10.90;99.90;;;;;;6273602;28;20668;-78
2021/09/07 00:46:59;;;;;;;7.90;6.40;;;11.00;99.90;;;;;;6273517;28;20781;-79
2021/09/07 00:50:02;;;;;;;8.93;6.47;;;10.90;99.90;;;;;;6273401;28;20275;-78
2021/09/07 00:53:05;;;;;;;9.23;6.53;;;10.90;99.90;;;;;;6254992;28;20258;-78
2021/09/07 00:56:09;;;;;;;8.30;5.73;;;10.90;99.90;;;;;;6279762;28;20198;-78
2021/09/07 00:59:13;;;;;;;9.83;6.43;;;10.90;99.90;;;;;;6256896;28;20214;-78
2021/09/07 01:02:16;;;;;;;8.00;5.80;;;10.90;99.90;;;;;;6256701;28;20558;-78
2021/09/07 01:05:19;;;;;;;9.43;6.77;;;10.90;99.90;;;;;;6257016;28;20204;-78
2021/09/07 01:08:22;;;;;;;7.47;5.90;;;10.80;99.90;;;;;;6272321;28;20207;-78
2021/09/07 01:11:25;;;;;;;9.63;5.97;;;10.80;99.90;;;;;;6249320;28;20192;-78
2021/09/07 01:14:29;;;;;;;6.67;5.97;;;10.90;99.90;;;;;;6288573;28;20187;-78
2021/09/07 01:17:32;;;;;;;11.47;6.50;;;10.80;99.90;;;;;;6274119;28;20189;-78
2021/09/07 01:20:36;;;;;;;12.23;6.97;;;10.80;99.90;;;;;;6273649;28;20188;-78
2021/09/07 01:23:45;;;;;;;9.77;5.97;;;10.80;99.90;;;;;;6255930;28;20273;-78
2021/09/07 01:26:47;;;;;;;8.17;6.03;;;10.80;99.90;;;;;;6272444;28;20196;-78
2021/09/07 01:29:49;;;;;;;7.23;6.17;;;10.80;99.90;;;;;;6272769;28;20273;-78
2021/09/07 01:32:52;;;;;;;15.50;6.47;;;10.80;99.90;;;;;;6269682;28;20220;-78
2021/09/07 01:35:58;;;;;;;6.97;6.20;;;10.80;99.90;;;;;;6249178;28;20238;-78
2021/09/07 01:39:00;;;;;;;8.53;6.23;;;10.80;99.90;;;;;;6273633;28;20190;-78
2021/09/07 01:42:04;;;;;;;8.47;6.60;;;10.80;99.90;;;;;;6271875;28;20210;-78
2021/09/07 01:45:07;;;;;;;8.37;6.10;;;10.80;99.90;;;;;;6272139;28;20219;-78
2021/09/07 01:48:10;;;;;;;8.37;6.17;;;10.70;99.90;;;;;;6273001;28;20219;-78
2021/09/07 01:51:12;;;;;;;9.00;6.10;;;10.70;99.90;;;;;;6255370;28;20192;-78
2021/09/07 01:54:15;;;;;;;7.57;6.00;;;10.70;99.90;;;;;;6271565;28;20198;-78
2021/09/07 01:57:18;;;;;;;7.40;6.40;;;10.70;99.90;;;;;;6271512;28;20206;-78
2021/09/07 02:00:21;;;;;;;9.57;6.43;;;10.70;99.90;;;;;;6254627;28;20192;-78
2021/09/07 02:03:24;;;;;;;6.77;6.00;;;10.70;99.90;;;;;;6266103;28;20226;-78
2021/09/07 02:06:26;;;;;;;7.73;6.30;;;10.70;99.90;;;;;;6263621;28;20204;-78
2021/09/07 02:09:29;;;;;;;10.33;6.20;;;10.70;99.90;;;;;;6271413;28;20207;-78
2021/09/07 02:12:32;;;;;;;7.80;6.57;;;10.60;99.90;;;;;;6272692;28;20663;-78
2021/09/07 02:15:35;;;;;;;6.30;5.70;;;10.60;99.90;;;;;;6255548;28;20548;-78
2021/09/07 02:18:38;;;;;;;6.40;5.30;;;10.60;99.90;;;;;;6244288;28;20203;-78
2021/09/07 02:21:41;;;;;;;7.63;5.90;;;10.60;99.90;;;;;;6271334;28;20671;-78
2021/09/07 02:24:44;;;;;;;6.20;5.27;;;10.60;99.90;;;;;;6265249;28;20208;-78
2021/09/07 02:27:47;;;;;;;9.60;6.23;;;10.60;99.90;;;;;;6266527;28;20272;-78
2021/09/07 02:30:50;;;;;;;8.00;5.80;;;10.60;99.90;;;;;;6271169;28;20203;-78
2021/09/07 02:33:53;;;;;;;7.77;5.60;;;10.60;99.90;;;;;;6258624;28;20558;-78
2021/09/07 02:36:56;;;;;;;8.27;5.70;;;10.60;99.90;;;;;;6269336;28;20188;-78
2021/09/07 02:39:59;;;;;;;6.67;4.90;;;10.60;99.90;;;;;;6271202;28;20265;-78
2021/09/07 02:43:02;;;;;;;7.90;6.00;;;10.60;99.90;;;;;;6256942;28;20188;-78
2021/09/07 02:46:05;;;;;;;8.40;5.63;;;10.60;99.90;;;;;;6274813;28;20249;-78
2021/09/07 02:49:08;;;;;;;7.60;6.03;;;10.60;99.90;;;;;;6270649;28;20613;-78
2021/09/07 02:52:11;;;;;;;6.33;5.43;;;10.50;99.90;;;;;;6270780;28;20882;-78
2021/09/07 02:55:14;;;;;;;12.50;5.80;;;10.50;99.90;;;;;;6270584;28;20287;-78
2021/09/07 02:58:16;;;;;;;7.07;5.60;;;10.50;99.90;;;;;;6270640;28;20204;-78
2021/09/07 03:01:20;;;;;;;7.63;6.00;;;10.40;99.90;;;;;;6270564;28;20230;-78
2021/09/07 03:04:22;;;;;;;6.90;5.57;;;10.40;99.90;;;;;;6255830;28;20684;-78
2021/09/07 03:07:25;;;;;;;8.07;5.80;;;10.40;99.90;;;;;;6281252;28;20667;-78
2021/09/07 03:10:27;;;;;;;7.83;6.30;;;10.30;99.90;;;;;;6268293;28;20216;-78
2021/09/07 03:13:29;;;;;;;7.07;5.90;;;10.30;99.90;;;;;;6278932;28;20728;-78
2021/09/07 03:16:35;;;;;;;8.00;6.00;;;10.30;99.90;;;;;;6260343;28;20521;-78
2021/09/07 03:19:40;;;;;;;7.30;6.20;;;10.30;99.90;;;;;;6271869;28;20199;-78
2021/09/07 03:22:43;;;;;;;7.80;6.10;;;10.30;99.90;;;;;;6250188;28;20234;-78
2021/09/07 03:25:46;;;;;;;7.07;5.87;;;10.30;99.90;;;;;;6227382;28;20673;-78
2021/09/07 03:28:51;;;;;;;8.43;5.77;;;10.30;99.90;;;;;;6290387;28;20459;-78
2021/09/07 03:31:53;;;;;;;6.83;6.13;;;10.30;99.90;;;;;;6275036;28;20246;-78
2021/09/07 03:34:56;;;;;;;8.30;6.27;;;10.30;99.90;;;;;;6239612;28;20222;-78
2021/09/07 03:38:00;;;;;;;8.90;6.43;;;10.30;99.90;;;;;;6269837;28;20194;-78
2021/09/07 03:41:02;;;;;;;7.67;6.20;;;10.30;99.90;;;;;;6265770;28;20196;-78
2021/09/07 03:44:06;;;;;;;9.03;6.67;;;10.30;99.90;;;;;;6273634;28;20203;-78
2021/09/07 03:47:08;;;;;;;7.67;6.00;;;10.30;99.90;;;;;;6274600;28;20237;-78
2021/09/07 03:50:14;;;;;;;8.50;6.83;;;10.30;99.90;;;;;;6274729;28;20524;-78
2021/09/07 03:53:18;;;;;;;7.67;6.57;;;10.30;99.90;;;;;;6274744;28;20179;-78
2021/09/07 03:56:20;;;;;;;8.70;6.33;;;10.30;99.90;;;;;;6274644;28;20215;-78
2021/09/07 03:59:23;;;;;;;9.17;7.10;;;10.20;99.90;;;;;;6260613;28;20191;-78
2021/09/07 04:02:26;;;;;;;7.17;5.53;;;10.20;99.90;;;;;;6265878;28;20571;-78
2021/09/07 04:05:29;;;;;;;8.47;6.00;;;10.20;99.90;;;;;;6263409;28;20203;-78
2021/09/07 04:08:32;;;;;;;10.40;6.87;;;10.20;99.90;;;;;;6274162;28;20365;-78
2021/09/07 04:11:36;;;;;;;8.73;6.83;;;10.10;99.90;;;;;;6274228;28;20187;-79
2021/09/07 04:14:39;;;;;;;8.67;6.83;;;10.10;99.90;;;;;;6273991;28;20725;-78
2021/09/07 04:17:44;;;;;;;8.90;6.20;;;10.10;99.90;;;;;;6274894;28;20179;-78
2021/09/07 04:20:46;;;;;;;8.23;6.27;;;10.10;99.90;;;;;;6257619;28;20617;-78
2021/09/07 04:23:48;;;;;;;8.37;6.47;;;10.10;99.90;;;;;;6227953;28;20244;-78
2021/09/07 04:26:53;;;;;;;8.00;6.43;;;10.10;99.90;;;;;;6251058;28;20661;-78
2021/09/07 04:29:56;;;;;;;10.97;6.90;;;10.10;99.90;;;;;;6271650;28;20258;-78
2021/09/07 04:32:58;;;;;;;9.20;6.93;;;10.20;99.90;;;;;;6267381;28;20246;-79
2021/09/07 04:36:00;;;;;;;7.27;6.47;;;10.20;99.90;;;;;;6273764;28;20324;-78
2021/09/07 04:39:03;;;;;;;7.77;5.70;;;10.30;99.90;;;;;;6267952;28;20293;-78
2021/09/07 04:42:05;;;;;;;8.70;6.77;;;10.30;99.90;;;;;;6251331;28;20271;-78
2021/09/07 04:45:08;;;;;;;8.10;5.50;;;10.40;99.90;;;;;;6274691;28;20192;-78
2021/09/07 04:48:12;;;;;;;9.97;6.63;;;10.40;99.90;;;;;;6272920;28;20207;-77
2021/09/07 04:51:15;;;;;;;6.30;5.60;;;10.40;99.90;;;;;;6273067;28;20179;-77
2021/09/07 04:54:17;;;;;;;6.40;5.53;;;10.50;99.90;;;;;;6256769;28;20196;-78
2021/09/07 04:57:19;;;;;;;7.63;6.03;;;10.50;99.90;;;;;;6278464;28;20202;-78
2021/09/07 05:00:22;;;;;;;7.33;6.33;;;10.60;99.90;;;;;;6262489;28;20247;-78
2021/09/07 05:03:24;;;;;;;7.80;6.37;;;10.60;99.90;;;;;;6264657;28;20254;-79
2021/09/07 05:06:32;;;;;;;8.93;5.83;;;10.60;99.90;;;;;;6252224;28;20589;-79
2021/09/07 05:09:34;;;;;;;7.37;5.87;;;10.60;99.90;;;;;;6271251;28;20301;-78
2021/09/07 05:12:37;;;;;;;7.27;5.83;;;10.70;99.90;;;;;;6264616;28;20192;-79
2021/09/07 05:15:39;;;;;;;7.30;6.17;;;10.70;99.90;;;;;;6271143;28;20282;-78
2021/09/07 05:18:42;;;;;;;6.40;5.50;;;10.80;99.90;;;;;;6283939;28;20248;-79
2021/09/07 05:21:44;;;;;;;7.93;6.50;;;10.80;99.90;;;;;;6257308;28;20219;-79
2021/09/07 05:24:46;;;;;;;8.30;6.57;;;10.80;99.90;;;;;;6264057;28;20240;-78
2021/09/07 05:27:49;;;;;;;7.30;5.70;;;10.80;99.90;;;;;;6258098;28;20274;-78
2021/09/07 05:30:52;;;;;;;8.73;6.30;;;10.90;99.90;;;;;;6271199;28;20234;-79
2021/09/07 05:33:54;;;;;;;6.57;5.87;;;10.90;99.90;;;;;;6247234;28;20211;-79
2021/09/07 05:36:57;;;;;;;7.87;6.10;;;11.00;99.90;;;;;;6273160;28;20192;-79
2021/09/07 05:40:00;;;;;;;6.57;5.60;;;11.00;99.90;;;;;;6271950;28;20285;-79
2021/09/07 05:43:02;;;;;;;6.77;5.97;;;11.10;99.90;;;;;;6252242;28;20196;-79
2021/09/07 05:46:04;;;;;;;6.97;6.20;;;11.20;99.90;;;;;;6265698;28;20199;-78
2021/09/07 05:49:07;;;;;;;8.10;6.20;;;11.30;99.90;;;;;;6255059;28;20218;-78
2021/09/07 05:52:09;;;;;;;7.73;6.20;;;11.40;99.90;;;;;;6255029;28;20652;-79
2021/09/07 05:55:12;;;;;;;6.90;5.80;;;11.50;99.90;;;;;;6272106;28;20189;-78
2021/09/07 05:58:14;;;;;;;8.93;6.00;;;11.50;99.90;;;;;;6254857;28;20596;-79
2021/09/07 06:01:17;;;;;;;6.63;5.80;;;11.60;99.90;;;;;;6271132;28;20288;-79
2021/09/07 06:04:19;;;;;;;7.30;6.30;;;11.70;99.90;;;;;;6257003;28;20197;-79
2021/09/07 06:07:22;;;;;;;7.17;5.60;;;11.70;99.90;;;;;;6269566;28;20275;-79
2021/09/07 06:10:24;;;;;;;6.73;5.77;;;11.80;99.90;;;;;;6270971;28;20698;-79
2021/09/07 06:13:26;;;;;;;5.97;5.37;;;11.90;99.90;;;;;;6257475;28;20192;-78
2021/09/07 06:16:29;;;;;;;6.87;5.57;;;12.00;99.90;;;;;;6259303;28;20595;-79
2021/09/07 06:19:31;;;;;;;6.33;5.70;;;12.00;99.90;;;;;;6262660;28;20230;-79
2021/09/07 06:22:35;;;;;;;6.43;5.73;;;12.10;99.90;;;;;;6267874;28;20224;-79
2021/09/07 06:25:37;;;;;;;7.33;6.10;;;12.20;99.90;;;;;;6271083;28;20543;-79
2021/09/07 06:28:39;;;;;;;6.87;5.80;;;12.30;99.90;;;;;;6270802;28;20212;-79
2021/09/07 06:31:42;;;;;;;7.53;6.50;;;12.40;99.90;;;;;;6272985;28;20211;-79
2021/09/07 06:34:45;;;;;;;7.40;5.57;;;12.50;99.90;;;;;;6250049;28;20239;-79
2021/09/07 06:37:48;;;;;;;7.13;5.80;;;12.60;99.90;;;;;;6263737;28;20190;-79
2021/09/07 06:40:50;;;;;;;7.50;5.60;;;12.70;99.90;;;;;;6257429;28;20188;-79
2021/09/07 06:43:53;;;;;;;7.97;6.17;;;12.90;99.90;;;;;;6258112;28;20197;-79
2021/09/07 06:46:56;;;;;;;8.33;6.20;;;13.10;99.90;;;;;;6271853;28;20589;-79
2021/09/07 06:50:02;;;;;;;6.53;5.83;;;13.30;99.90;;;;;;6270429;28;20240;-79
2021/09/07 06:53:04;;;;;;;6.63;5.20;;;13.50;99.90;;;;;;6270721;28;20175;-79
2021/09/07 06:56:06;;;;;;;7.63;5.27;;;13.70;99.90;;;;;;6270602;28;20197;-79
2021/09/07 06:59:09;;;;;;;7.53;5.70;;;13.90;99.90;;;;;;6270227;28;20199;-79
2021/09/07 07:02:11;;;;;;;6.43;5.03;;;14.00;99.90;;;;;;6251324;28;20202;-79
2021/09/07 07:05:14;;;;;;;5.87;5.27;;;14.10;99.90;;;;;;6263504;28;20207;-79
2021/09/07 07:08:16;;;;;;;8.60;5.70;;;14.20;99.90;;;;;;6269748;28;20351;-79
2021/09/07 07:11:18;;;;;;;5.93;5.20;;;14.40;99.90;;;;;;6260488;28;20195;-80
2021/09/07 07:14:21;;;;;;;6.67;5.60;;;14.50;99.90;;;;;;6248452;28;20196;-79
2021/09/07 07:17:24;;;;;;;6.37;5.37;;;14.70;99.90;;;;;;6265347;28;20198;-79
2021/09/07 07:20:26;;;;;;;7.17;5.47;;;14.80;99.90;;;;;;6270178;28;20183;-79
2021/09/07 07:23:28;;;;;;;7.33;6.00;;;15.00;99.90;;;;;;6245224;28;20274;-79
2021/09/07 07:26:30;;;;;;;7.27;5.50;;;15.10;99.90;;;;;;6268127;28;20574;-80
2021/09/07 07:29:33;;;;;;;6.57;5.13;;;15.20;99.90;;;;;;6271048;28;20618;-79
2021/09/07 07:32:36;;;;;;;6.07;5.43;;;15.30;99.90;;;;;;6269622;28;20219;-80
2021/09/07 07:35:38;;;;;;;7.27;5.10;;;15.40;99.90;;;;;;6226580;28;20329;-80
2021/09/07 07:38:40;;;;;;;6.77;5.63;;;15.50;99.90;;;;;;6269910;28;20201;-80
2021/09/07 07:41:43;;;;;;;6.63;5.20;;;15.70;99.90;;;;;;6269987;28;20191;-80
2021/09/07 07:44:47;;;;;;;9.83;5.90;;;15.90;99.90;;;;;;6269565;28;20194;-80
2021/09/07 07:47:49;;;;;;;6.33;4.93;;;15.90;99.90;;;;;;6269708;28;20198;-80
2021/09/07 07:50:52;;;;;;;6.43;5.50;;;15.90;99.90;;;;;;6252791;28;20222;-80
2021/09/07 07:53:54;;;;;;;6.00;5.40;;;16.10;99.90;;;;;;6272609;28;20195;-80
2021/09/07 07:56:57;;;;;;;6.20;5.40;;;16.50;99.90;;;;;;6275234;28;20528;-80
2021/09/07 07:59:59;;;;;;;5.27;4.73;;;17.20;99.90;;;;;;6254781;28;20199;-80
2021/09/07 08:03:01;;;;;;;6.77;4.77;;;17.90;99.90;;;;;;6256256;28;20305;-80
2021/09/07 08:06:11;;;;;;;7.17;5.53;;;18.50;99.90;;;;;;6255928;28;20677;-80
2021/09/07 08:09:13;;;;;;;5.07;4.57;;;19.10;99.90;;;;;;6256978;28;20713;-80
2021/09/07 08:12:17;;;;;;;7.40;5.53;;;19.60;99.90;;;;;;6274061;28;20321;-80
2021/09/07 08:15:20;;;;;;;6.57;4.60;;;20.00;99.90;;;;;;6274259;28;20191;-80
2021/09/07 08:18:22;;;;;;;6.97;4.43;;;20.20;99.90;;;;;;6275250;28;20266;-80
2021/09/07 08:21:25;;;;;;;5.37;4.63;;;20.30;99.90;;;;;;6256959;28;20283;-80
2021/09/07 08:24:27;;;;;;;5.73;4.73;;;20.20;99.90;;;;;;6267489;28;20250;-80
2021/09/07 08:27:30;;;;;;;4.93;4.40;;;20.10;99.90;;;;;;6266972;28;20282;-80
2021/09/07 08:30:33;;;;;;;5.70;5.07;;;20.10;99.90;;;;;;6273196;28;20227;-80
2021/09/07 08:33:35;;;;;;;5.77;4.33;;;20.20;99.90;;;;;;6268057;28;20188;-80
2021/09/07 08:36:37;;;;;;;5.77;4.63;;;20.40;99.90;;;;;;6273316;28;21524;-79
2021/09/07 08:39:40;;;;;;;5.47;4.77;;;20.60;99.90;;;;;;6236097;28;20288;-80
2021/09/07 08:42:42;;;;;;;4.87;4.37;;;21.00;99.90;;;;;;6272465;28;20567;-80
2021/09/07 08:45:51;;;;;;;5.30;4.20;;;21.30;98.70;;;;;;6252838;28;20212;-80
2021/09/07 08:48:53;;;;;;;5.83;4.53;;;21.60;97.90;;;;;;6268011;28;20230;-80
2021/09/07 08:51:55;;;;;;;7.23;4.47;;;21.70;96.70;;;;;;6274203;28;20195;-80
2021/09/07 08:54:58;;;;;;;5.10;4.33;;;21.70;96.40;;;;;;6272788;28;20195;-79
2021/09/07 08:58:00;;;;;;;4.90;4.40;;;21.70;97.10;;;;;;6272596;28;20203;-80
2021/09/07 09:01:16;;;;;;;8.17;5.20;;;21.70;96.40;;;;;;6256318;28;20285;-80
2021/09/07 09:04:31;;;;;;;8.03;4.97;;;21.70;95.80;;;;;;6261499;28;20274;-80
2021/09/07 09:07:35;;;;;;;6.03;4.57;;;21.90;95.50;;;;;;6270712;28;20195;-79
2021/09/07 09:10:37;;;;;;;6.67;4.63;;;22.10;95.20;;;;;;6249667;28;20215;-79
2021/09/07 09:13:47;;;;;;;7.30;4.70;;;22.20;95.90;;;;;;6271256;28;20311;-80
2021/09/07 09:16:50;;;;;;;7.40;5.27;;;22.40;96.70;;;;;;6266171;28;20186;-80
2021/09/07 09:19:59;;;;;;;5.63;5.03;;;22.50;96.60;;;;;;6272300;28;20226;-80
2021/09/07 09:23:03;;;;;;;6.23;5.10;;;22.60;97.10;;;;;;6248356;28;20245;-80
2021/09/07 09:26:06;;;;;;;6.40;4.83;;;22.70;96.90;;;;;;6265455;28;20293;-80
2021/09/07 09:29:08;;;;;;;5.80;4.50;;;22.70;95.80;;;;;;6271979;28;20268;-80
2021/09/07 09:32:13;;;;;;;5.13;4.63;;;22.60;96.30;;;;;;6271907;28;20243;-80
2021/09/07 09:35:15;;;;;;;5.57;4.87;;;22.60;97.40;;;;;;6254491;28;20665;-80
2021/09/07 09:38:21;;;;;;;8.27;5.60;;;22.60;97.10;;;;;;6272067;28;20191;-80
2021/09/07 09:41:23;;;;;;;7.00;5.03;;;22.30;95.10;;;;;;6272448;28;20187;-80
2021/09/07 09:44:27;;;;;;;5.93;5.00;;;22.10;96.10;;;;;;6271666;28;20669;-80
2021/09/07 09:47:56;;;;;;;6.33;5.40;;;21.90;94.60;;;;;;6242014;28;20203;-80
2021/09/07 09:50:59;;;;;;;7.77;5.27;;;21.80;95.30;;;;;;6267486;28;20689;-79
2021/09/07 09:54:02;;;;;;;10.33;6.30;;;21.70;93.50;;;;;;6255155;28;20226;-80
2021/09/07 09:57:05;;;;;;;8.17;5.47;;;21.40;93.10;;;;;;6250589;28;20203;-79
2021/09/07 10:00:11;;;;;;;10.90;6.00;;;21.20;93.40;;;;;;6246777;28;20291;-79
2021/09/07 10:03:14;;;;;;;9.53;5.50;;;21.10;93.70;;;;;;6249619;28;20193;-79
2021/09/07 10:06:18;;;;;;;8.27;4.80;;;21.10;93.30;;;;;;6266482;28;20195;-79
2021/09/07 10:09:23;;;;;;;7.93;5.13;;;21.10;95.20;;;;;;6271290;28;20250;-80
2021/09/07 10:12:33;;;;;;;4.90;4.33;;;21.30;96.20;;;;;;6271217;28;20202;-79
2021/09/07 10:15:56;;;;;;;6.17;4.50;;;21.50;96.50;;;;;;6233285;28;20185;-80
2021/09/07 10:19:10;;;;;;;6.27;5.10;;;21.60;96.20;;;;;;6282746;28;20201;-80
2021/09/07 10:26:01;;;;;;;8.53;4.73;;;21.60;95.40;;;;;;6272020;28;20183;-79
2021/09/07 10:29:25;;;;;;;7.13;5.20;;;21.50;95.30;;;;;;6272057;28;20207;-79
2021/09/07 10:32:31;;;;;;;6.23;4.87;;;21.60;96.30;;;;;;6238223;28;20761;-79
2021/09/07 10:36:05;;;;;;;5.90;4.90;;;21.80;96.70;;;;;;6264590;28;20196;-79
2021/09/07 10:39:24;;;;;;;8.30;5.13;;;21.90;96.10;;;;;;6270948;28;20721;-79
2021/09/07 10:42:46;;;;;;;5.67;4.90;;;22.00;95.60;;;;;;6254016;28;20248;-79
2021/09/07 10:45:50;;;;;;;7.30;5.30;;;22.10;95.70;;;;;;6270369;28;20277;-79
2021/09/07 10:49:13;;;;;;;8.60;5.03;;;22.10;94.90;;;;;;6270396;28;20602;-80
2021/09/07 10:52:29;;;;;;;8.10;4.93;;;22.20;94.50;;;;;;6270701;28;20202;-79
2021/09/07 10:55:35;;;;;;;5.67;5.07;;;22.40;94.10;;;;;;6270216;28;20192;-80
2021/09/07 10:58:38;;;;;;;8.40;5.30;;;22.50;92.50;;;;;;6253846;28;20205;-80
2021/09/07 11:01:40;;;;;;;6.80;5.47;;;22.50;91.20;;;;;;6254150;28;20206;-79
2021/09/07 11:04:52;;;;;;;9.10;5.37;;;22.50;89.80;;;;;;6255035;28;20199;-80
2021/09/07 11:08:13;;;;;;;7.80;5.57;;;22.40;89.30;;;;;;6271766;28;20192;-79
2021/09/07 11:11:24;;;;;;;9.67;5.33;;;22.30;87.20;;;;;;6255164;28;20289;-79
2021/09/07 11:14:26;;;;;;;10.47;5.90;;;22.30;88.80;;;;;;6227642;28;20314;-80
2021/09/07 11:17:29;;;;;;;7.43;5.40;;;22.50;88.10;;;;;;6284217;28;20191;-80
2021/09/07 11:20:35;;;;;;;10.87;6.03;;;22.20;87.00;;;;;;6270139;28;20244;-79
2021/09/07 11:23:38;;;;;;;7.47;5.70;;;22.10;86.10;;;;;;6255291;28;20312;-79
2021/09/07 11:26:40;;;;;;;9.83;5.40;;;22.00;86.70;;;;;;6234186;28;20284;-80
2021/09/07 11:29:43;;;;;;;8.07;5.70;;;22.00;87.80;;;;;;6259366;28;20227;-79
2021/09/07 11:32:45;;;;;;;6.30;4.80;;;22.10;87.40;;;;;;6273603;28;20210;-79
2021/09/07 11:35:52;;;;;;;7.50;4.90;;;22.30;87.20;;;;;;6250355;28;20231;-80
2021/09/07 11:38:56;;;;;;;8.93;5.60;;;22.60;90.40;;;;;;6267004;28;20283;-80
2021/09/07 11:41:59;;;;;;;8.00;5.67;;;23.20;90.60;;;;;;6258249;28;20204;-80
2021/09/07 11:45:02;;;;;;;7.83;5.20;;;23.70;85.00;;;;;;6254852;28;20408;-80
2021/09/07 11:48:06;;;;;;;6.40;5.20;;;24.20;84.30;;;;;;6274630;28;20543;-80
2021/09/07 11:51:10;;;;;;;7.97;6.13;;;24.30;80.90;;;;;;6261258;28;20216;-79
2021/09/07 11:54:16;;;;;;;9.37;6.27;;;24.60;77.50;;;;;;6277688;28;20200;-80
2021/09/07 11:57:19;;;;;;;5.80;4.70;;;24.70;78.80;;;;;;6257746;28;20570;-79
2021/09/07 12:00:21;;;;;;;7.40;5.67;;;25.00;80.70;;;;;;6252490;28;20246;-80
2021/09/07 12:03:37;;;;;;;9.40;6.00;;;24.80;78.00;;;;;;6251083;28;20208;-79
2021/09/07 12:06:42;;;;;;;7.33;5.23;;;24.50;75.50;;;;;;6275506;28;20186;-79
2021/09/07 12:09:45;;;;;;;7.10;5.03;;;24.20;80.20;;;;;;6265757;28;20223;-79
2021/09/07 12:12:47;;;;;;;7.13;4.97;;;23.90;85.20;;;;;;6250661;28;20195;-79
2021/09/07 12:15:51;;;;;;;8.47;4.93;;;23.80;87.40;;;;;;6267877;28;20277;-79
2021/09/07 12:18:53;;;;;;;5.33;4.80;;;23.60;88.10;;;;;;6281538;28;20568;-79
2021/09/07 12:22:22;;;;;;;9.67;6.43;;;23.50;89.40;;;;;;6273719;28;20603;-79
2021/09/07 12:25:24;;;;;;;8.37;5.93;;;23.40;86.40;;;;;;6273744;28;20678;-79
2021/09/07 12:28:26;;;;;;;6.13;5.03;;;23.00;85.30;;;;;;6257417;28;20561;-79
2021/09/07 12:31:29;;;;;;;7.03;4.87;;;22.80;89.30;;;;;;6269190;28;20683;-79
2021/09/07 12:34:31;;;;;;;5.90;5.20;;;22.90;90.50;;;;;;6267367;28;20192;-79
2021/09/07 12:37:34;;;;;;;7.40;5.80;;;23.00;91.00;;;;;;6273651;28;20191;-79
2021/09/07 12:40:39;;;;;;;6.43;5.43;;;23.00;90.70;;;;;;6274348;28;20196;-79
2021/09/07 12:43:49;;;;;;;7.37;5.20;;;22.90;91.20;;;;;;6273444;28;20667;-79
2021/09/07 12:46:51;;;;;;;5.77;5.13;;;22.80;91.70;;;;;;6256366;28;20282;-79
2021/09/07 12:49:53;;;;;;;5.47;4.97;;;22.80;91.90;;;;;;6248804;28;20211;-79
2021/09/07 12:52:56;;;;;;;5.27;4.77;;;22.80;92.20;;;;;;6265023;28;20674;-79
2021/09/07 12:56:01;;;;;;;6.23;5.30;;;22.60;92.90;;;;;;6264772;28;20684;-79
2021/09/07 12:59:07;;;;;;;9.13;5.20;;;22.60;93.20;;;;;;6254203;28;20191;-80
2021/09/07 13:02:10;;;;;;;7.73;5.03;;;22.50;93.50;;;;;;6272857;28;20647;-79
2021/09/07 13:05:12;;;;;;;5.90;5.00;;;22.50;93.20;;;;;;6251406;28;20192;-79
2021/09/07 13:08:14;;;;;;;6.27;4.30;;;22.60;93.70;;;;;;6274381;28;20573;-79
2021/09/07 13:11:19;;;;;;;7.67;5.07;;;22.70;93.70;;;;;;6252936;28;20208;-80
2021/09/07 13:14:22;;;;;;;6.80;4.93;;;22.90;93.30;;;;;;6278374;28;20658;-79
2021/09/07 13:17:24;;;;;;;6.57;5.20;;;23.00;92.90;;;;;;6248076;28;20636;-79
2021/09/07 13:20:26;;;;;;;5.50;4.87;;;23.10;93.20;;;;;;6272785;28;20215;-79
2021/09/07 13:23:29;;;;;;;7.57;5.77;;;23.20;93.20;;;;;;6272240;28;20228;-79
2021/09/07 13:26:31;;;;;;;9.03;5.30;;;23.30;92.30;;;;;;6267199;28;20224;-79
2021/09/07 13:29:34;;;;;;;5.37;4.83;;;23.20;92.60;;;;;;6265966;28;20806;-79
2021/09/07 13:32:36;;;;;;;5.60;4.60;;;23.30;92.80;;;;;;6271989;28;20200;-79
2021/09/07 13:35:39;;;;;;;7.90;4.77;;;23.40;93.00;;;;;;6286616;28;20195;-79
2021/09/07 13:38:41;;;;;;;5.90;4.53;;;23.60;92.70;;;;;;6273242;28;20183;-79
2021/09/07 13:41:44;;;;;;;4.80;4.30;;;23.60;92.90;;;;;;6272187;28;20270;-79
2021/09/07 13:44:46;;;;;;;5.33;4.83;;;23.70;92.90;;;;;;6233697;28;20254;-79
2021/09/07 13:47:49;;;;;;;6.00;4.30;;;23.70;92.40;;;;;;6259042;28;20195;-79
2021/09/07 13:50:51;;;;;;;5.23;4.27;;;23.70;92.20;;;;;;6254514;28;20702;-79
2021/09/07 13:53:53;;;;;;;6.10;4.70;;;23.70;92.30;;;;;;6255252;28;20539;-79
2021/09/07 13:56:55;;;;;;;5.33;4.57;;;23.80;92.30;;;;;;6271746;28;20206;-79
2021/09/07 13:59:58;;;;;;;6.90;4.57;;;23.80;91.80;;;;;;6236757;28;20282;-79
2021/09/07 14:03:01;;;;;;;6.57;4.37;;;23.80;91.40;;;;;;6281937;28;20660;-79
2021/09/07 14:06:04;;;;;;;6.30;4.60;;;24.00;91.30;;;;;;6229424;28;20199;-79
2021/09/07 14:09:06;;;;;;;12.13;5.60;;;24.40;90.90;;;;;;6253488;28;20211;-79
2021/09/07 14:12:10;;;;;;;6.77;4.63;;;24.70;87.30;;;;;;6260572;28;20203;-79
2021/09/07 14:15:13;;;;;;;9.77;4.87;;;24.70;89.10;;;;;;6252968;28;20222;-80
2021/09/07 14:18:15;;;;;;;5.80;4.53;;;24.60;83.40;;;;;;6271327;28;20187;-79
2021/09/07 14:21:18;;;;;;;5.80;4.97;;;24.30;84.90;;;;;;6254513;28;20201;-79
2021/09/07 14:24:20;;;;;;;6.27;4.53;;;24.10;88.20;;;;;;6254694;28;20258;-79
2021/09/07 14:27:23;;;;;;;6.57;5.03;;;24.10;89.90;;;;;;6272342;28;20203;-79
2021/09/07 14:30:28;;;;;;;5.77;4.60;;;24.00;89.80;;;;;;6270868;28;20226;-80
2021/09/07 14:33:30;;;;;;;7.70;4.80;;;24.00;88.90;;;;;;6264239;28;20219;-79
2021/09/07 14:36:32;;;;;;;8.93;5.00;;;24.20;84.10;;;;;;6261842;28;20199;-79
2021/09/07 14:39:35;;;;;;;5.83;4.23;;;24.20;85.50;;;;;;6251584;28;20199;-79
2021/09/07 14:42:38;;;;;;;8.10;4.87;;;24.20;88.40;;;;;;6253378;28;20183;-79
2021/09/07 14:45:40;;;;;;;6.97;4.30;;;24.30;87.00;;;;;;6253991;28;20242;-79
2021/09/07 14:48:42;;;;;;;5.77;4.40;;;25.10;80.30;;;;;;6269844;28;20187;-79
2021/09/07 14:51:45;;;;;;;7.03;4.47;;;25.50;78.50;;;;;;6262241;28;20227;-79
2021/09/07 14:54:47;;;;;;;4.90;4.40;;;25.40;79.60;;;;;;6245617;28;20218;-79
2021/09/07 14:57:49;;;;;;;5.27;4.50;;;25.30;78.60;;;;;;6270354;28;20195;-79
2021/09/07 15:00:51;;;;;;;5.77;4.80;;;25.10;77.00;;;;;;6270183;28;20202;-80
2021/09/07 15:03:54;;;;;;;6.17;4.50;;;24.80;77.30;;;;;;6258728;28;20245;-79
2021/09/07 15:06:57;;;;;;;6.90;4.47;;;24.40;76.70;;;;;;6245432;28;20198;-79
2021/09/07 15:09:59;;;;;;;6.13;4.60;;;24.30;79.70;;;;;;6262706;28;20211;-78
2021/09/07 15:13:03;;;;;;;7.03;4.40;;;24.50;77.60;;;;;;6248028;28;20192;-79
2021/09/07 15:16:05;;;;;;;6.10;4.17;;;24.30;78.50;;;;;;6253773;28;20205;-79
2021/09/07 15:19:07;;;;;;;5.33;3.87;;;23.80;80.00;;;;;;6253589;28;20203;-79
2021/09/07 15:22:10;;;;;;;7.07;5.07;;;23.40;83.70;;;;;;6269899;28;20239;-78
2021/09/07 15:25:12;;;;;;;8.20;4.63;;;23.10;83.20;;;;;;6252581;28;20658;-79
2021/09/07 15:28:15;;;;;;;7.47;4.80;;;22.70;87.90;;;;;;6261251;28;20292;-78
2021/09/07 15:31:17;;;;;;;7.27;4.60;;;22.40;85.80;;;;;;6250227;28;20224;-79
2021/09/07 15:34:20;;;;;;;5.73;4.43;;;22.10;90.70;;;;;;6259394;28;20196;-79
2021/09/07 15:37:22;;;;;;;4.73;4.20;;;21.90;92.10;;;;;;6269765;28;20277;-79
2021/09/07 15:40:24;;;;;;;6.40;4.57;;;21.70;92.90;;;;;;6269576;28;20694;-79
2021/09/07 15:43:26;;;;;;;5.70;4.47;;;21.60;93.80;;;;;;6245134;28;20207;-79
2021/09/07 15:46:29;;;;;;;5.50;4.23;;;21.50;94.20;;;;;;6261900;28;20342;-79
2021/09/07 15:49:31;;;;;;;11.67;4.77;;;21.50;94.10;;;;;;6261782;28;20203;-79
2021/09/07 15:52:34;;;;;;;5.17;4.30;;;21.30;94.50;;;;;;6261390;28;20216;-79
2021/09/07 15:55:36;;;;;;;7.20;4.63;;;21.10;95.40;;;;;;6259141;28;20555;-78
2021/09/07 15:58:39;;;;;;;9.30;5.60;;;20.90;96.10;;;;;;6261710;28;20334;-79